Orbital elements of FREGAT DEB
| Launched | 17 July 2011 |
| Flight ended | – |
| Launch site | Tyuratam Missile and Space Center, Kazakhstan (Also known as Baikonur Cosmodrome) |
| Owner | Commonwealth of Independent States (former USSR) |
| NORAD ID | 45649 |
| Date fetched |
Epoch osculation |
Inc. [°] |
Ecc. | RA asc node [hr] |
Arg Peri. [°] |
Mean anom [°] |
Mean motion [rev/day] |
Abs. mag |
| Date fetched |
Epoch osculation |
Inc. [°] |
Ecc. | RA asc node [hr] |
Arg Peri. [°] |
Mean anom [°] |
Mean motion [rev/day] |
Abs. mag |
| 2026 May 03 17:57 | 2026 Apr 30 14:40:46 | 51.5377 | 0.07809 | 11.5129 | 209.0248 | 146.5011 | 13.13262 | – |
| 2026 May 02 17:57 | 2026 Apr 30 14:40:46 | 51.5377 | 0.07809 | 11.5129 | 209.0248 | 146.5011 | 13.13262 | – |
| 2026 May 01 17:56 | 2026 Apr 30 14:40:46 | 51.5377 | 0.07809 | 11.5129 | 209.0248 | 146.5011 | 13.13262 | – |
| 2026 Apr 30 17:56 | 2026 Apr 30 14:40:46 | 51.5377 | 0.07809 | 11.5129 | 209.0248 | 146.5011 | 13.13262 | – |
| 2026 Apr 29 17:57 | 2026 Apr 24 10:41:02 | 51.5289 | 0.07826 | 12.9155 | 192.1611 | 146.5011 | 13.13262 | – |
| 2026 Apr 28 17:56 | 2026 Apr 24 10:41:02 | 51.5289 | 0.07826 | 12.9155 | 192.1611 | 146.5011 | 13.13262 | – |
| 2026 Apr 27 17:58 | 2026 Apr 24 10:41:02 | 51.5289 | 0.07826 | 12.9155 | 192.1611 | 146.5011 | 13.13262 | – |
| 2026 Apr 26 17:58 | 2026 Apr 24 10:41:02 | 51.5289 | 0.07826 | 12.9155 | 192.1611 | 146.5011 | 13.13262 | – |
| 2026 Apr 25 17:58 | 2026 Apr 24 10:41:02 | 51.5289 | 0.07826 | 12.9155 | 192.1611 | 146.5011 | 13.13262 | – |
| 2026 Apr 24 17:59 | 2026 Apr 24 10:41:02 | 51.5289 | 0.07826 | 12.9155 | 192.1611 | 146.5011 | 13.13262 | – |
| 2026 Apr 23 17:57 | 2026 Apr 19 11:50:00 | 51.5262 | 0.07834 | 14.0401 | 178.5610 | 146.5011 | 13.13262 | – |
| 2026 Apr 22 17:57 | 2026 Apr 19 11:50:00 | 51.5262 | 0.07834 | 14.0401 | 178.5610 | 146.5011 | 13.13262 | – |
| 2026 Apr 21 17:57 | 2026 Apr 19 11:50:00 | 51.5262 | 0.07834 | 14.0401 | 178.5610 | 146.5011 | 13.13262 | – |
| 2026 Apr 20 17:57 | 2026 Apr 19 11:50:00 | 51.5262 | 0.07834 | 14.0401 | 178.5610 | 146.5011 | 13.13262 | – |
| 2026 Apr 19 17:58 | 2026 Apr 19 11:50:00 | 51.5262 | 0.07834 | 14.0401 | 178.5610 | 146.5011 | 13.13262 | – |
| 2026 Apr 18 17:56 | 2026 Apr 12 20:39:22 | 51.5269 | 0.07842 | 15.5442 | 160.3420 | 146.5011 | 13.13262 | – |
| 2026 Apr 16 17:57 | 2026 Apr 12 20:39:22 | 51.5269 | 0.07842 | 15.5442 | 160.3420 | 146.5011 | 13.13262 | – |
| 2026 Apr 14 17:57 | 2026 Apr 12 20:39:22 | 51.5269 | 0.07842 | 15.5442 | 160.3420 | 146.5011 | 13.13262 | – |
| 2026 Apr 13 17:57 | 2026 Apr 12 20:39:22 | 51.5269 | 0.07842 | 15.5442 | 160.3420 | 146.5011 | 13.13262 | – |
| 2026 Apr 12 17:57 | 2026 Apr 08 15:57:56 | 51.5298 | 0.07863 | 16.4940 | 148.8971 | 146.5011 | 13.13262 | – |
| 2026 Apr 11 17:57 | 2026 Apr 08 15:57:56 | 51.5298 | 0.07863 | 16.4940 | 148.8971 | 146.5011 | 13.13262 | – |
| 2026 Apr 10 17:58 | 2026 Apr 08 15:57:56 | 51.5298 | 0.07863 | 16.4940 | 148.8971 | 146.5011 | 13.13262 | – |
| 2026 Apr 09 18:01 | 2026 Apr 08 15:57:56 | 51.5298 | 0.07863 | 16.4940 | 148.8971 | 146.5011 | 13.13262 | – |
| 2026 Apr 08 17:57 | 2026 Apr 08 15:57:56 | 51.5298 | 0.07863 | 16.4940 | 148.8971 | 146.5011 | 13.13262 | – |
| 2026 Apr 07 17:57 | 2026 Apr 02 04:11:13 | 51.5299 | 0.07913 | 17.9599 | 131.3801 | 146.5011 | 13.13262 | – |
| 2026 Apr 06 17:57 | 2026 Apr 02 04:11:13 | 51.5299 | 0.07913 | 17.9599 | 131.3801 | 146.5011 | 13.13262 | – |